createdAt,value
2019-05-06T00:00:33.958Z,809.42
2019-05-06T00:01:34.112Z,809.42
2019-05-06T00:02:33.587Z,809.42
2019-05-06T00:03:34.210Z,809.42
2019-05-06T00:04:33.992Z,809.40
2019-05-06T00:05:34.008Z,809.34
2019-05-06T00:06:34.390Z,809.33
2019-05-06T00:07:33.881Z,809.34
2019-05-06T00:08:34.224Z,809.29
2019-05-06T00:09:32.065Z,809.30
2019-05-06T00:10:33.994Z,809.32
2019-05-06T00:11:34.401Z,809.37
2019-05-06T00:12:33.522Z,809.34
2019-05-06T00:13:34.207Z,809.35
2019-05-06T00:14:33.886Z,809.36
2019-05-06T00:15:34.098Z,809.38
2019-05-06T00:16:34.412Z,809.32
2019-05-06T00:17:32.097Z,809.34
2019-05-06T00:18:34.229Z,809.38
2019-05-06T00:19:34.094Z,809.39
2019-05-06T00:20:32.109Z,809.34
2019-05-06T00:21:32.110Z,809.36
2019-05-06T00:22:34.270Z,809.32
2019-05-06T00:23:32.123Z,809.36
2019-05-06T00:24:34.672Z,809.36
2019-05-06T00:25:34.728Z,809.33
2019-05-06T00:26:33.993Z,809.35
2019-05-06T00:27:34.172Z,809.37
2019-05-06T00:28:34.014Z,809.35
2019-05-06T00:29:32.141Z,809.36
2019-05-06T00:30:34.442Z,809.35
2019-05-06T00:31:34.364Z,809.36
2019-05-06T00:32:32.155Z,809.34
2019-05-06T00:33:34.002Z,809.35
2019-05-06T00:34:33.971Z,809.30
2019-05-06T00:35:34.157Z,809.31
2019-05-06T00:36:34.314Z,809.32
2019-05-06T00:37:32.169Z,809.31
2019-05-06T00:38:34.005Z,809.29
2019-05-06T00:39:33.659Z,809.25
2019-05-06T00:40:34.027Z,809.27
2019-05-06T00:41:35.907Z,809.33
2019-05-06T00:42:34.434Z,809.30
2019-05-06T00:43:34.352Z,809.33
2019-05-06T00:44:32.196Z,809.37
2019-05-06T00:45:34.071Z,809.30
2019-05-06T00:46:34.257Z,809.34
2019-05-06T00:47:33.999Z,809.34
2019-05-06T00:48:34.112Z,809.33
2019-05-06T00:49:34.272Z,809.41
2019-05-06T00:50:32.215Z,809.35
2019-05-06T00:51:33.864Z,809.35
2019-05-06T00:52:33.959Z,809.35
2019-05-06T00:53:34.605Z,809.33
2019-05-06T00:54:34.097Z,809.40
2019-05-06T00:55:33.783Z,809.38
2019-05-06T00:56:34.026Z,809.36
2019-05-06T00:57:33.964Z,809.33
2019-05-06T00:58:34.592Z,809.32
2019-05-06T00:59:34.422Z,809.38
2019-05-06T01:00:33.677Z,809.37
2019-05-06T01:01:34.293Z,809.38
2019-05-06T01:02:34.123Z,809.38
2019-05-06T01:03:34.518Z,809.46
2019-05-06T01:04:33.887Z,809.42
2019-05-06T01:05:33.736Z,809.38
2019-05-06T01:06:34.457Z,809.39
2019-05-06T01:07:34.356Z,809.42
2019-05-06T01:08:34.656Z,809.40
2019-05-06T01:09:33.913Z,809.41
2019-05-06T01:10:34.234Z,809.42
2019-05-06T01:11:34.486Z,809.43
2019-05-06T01:12:34.558Z,809.46
2019-05-06T01:13:32.292Z,809.45
2019-05-06T01:14:32.298Z,809.46
2019-05-06T01:15:34.263Z,809.47
2019-05-06T01:16:34.391Z,809.47
2019-05-06T01:17:33.908Z,809.48
2019-05-06T01:18:34.049Z,809.46
2019-05-06T01:19:34.136Z,809.48
2019-05-06T01:20:33.956Z,809.45
2019-05-06T01:21:34.192Z,809.45
2019-05-06T01:22:34.195Z,809.45
2019-05-06T01:23:34.201Z,809.46
2019-05-06T01:24:34.350Z,809.48
2019-05-06T01:25:34.461Z,809.43
2019-05-06T01:26:33.731Z,809.49
2019-05-06T01:27:33.740Z,809.49
2019-05-06T01:28:34.104Z,809.46
2019-05-06T01:29:34.613Z,809.49
2019-05-06T01:30:33.722Z,809.52
2019-05-06T01:31:42.284Z,809.50
2019-05-06T01:32:34.437Z,809.51
2019-05-06T01:33:32.362Z,809.50
2019-05-06T01:34:33.884Z,809.51
2019-05-06T01:35:32.361Z,809.50
2019-05-06T01:36:34.286Z,809.50
2019-05-06T01:37:34.586Z,809.45
2019-05-06T01:38:33.956Z,809.51
2019-05-06T01:39:34.164Z,809.51
2019-05-06T01:40:34.495Z,809.50
2019-05-06T01:41:33.860Z,809.49
2019-05-06T01:42:34.273Z,809.56
2019-05-06T01:43:34.547Z,809.54
2019-05-06T01:44:33.925Z,809.53
2019-05-06T01:45:32.397Z,809.50
2019-05-06T01:46:33.954Z,809.52
2019-05-06T01:47:34.446Z,809.50
2019-05-06T01:48:33.654Z,809.56
2019-05-06T01:49:33.997Z,809.58
2019-05-06T01:50:34.338Z,809.58
2019-05-06T01:51:34.605Z,809.54
2019-05-06T01:52:34.371Z,809.56
2019-05-06T01:53:33.876Z,809.54
2019-05-06T01:54:34.320Z,809.58
2019-05-06T01:55:34.216Z,809.58
2019-05-06T01:56:33.649Z,809.57
2019-05-06T01:57:33.776Z,809.59
2019-05-06T01:58:33.558Z,809.55
2019-05-06T01:59:34.060Z,809.53
2019-05-06T02:00:34.372Z,809.49
2019-05-06T02:01:34.211Z,809.51
2019-05-06T02:02:34.222Z,809.53
2019-05-06T02:03:34.606Z,809.54
2019-05-06T02:04:33.747Z,809.54
2019-05-06T02:05:33.662Z,809.58
2019-05-06T02:06:34.315Z,809.58
2019-05-06T02:07:34.801Z,809.57
2019-05-06T02:08:33.695Z,809.56
2019-05-06T02:09:34.322Z,809.57
2019-05-06T02:10:34.498Z,809.56
2019-05-06T02:11:33.698Z,809.58
2019-05-06T02:12:34.217Z,809.54
2019-05-06T02:13:34.821Z,809.55
2019-05-06T02:14:34.152Z,809.57
2019-05-06T02:15:34.504Z,809.55
2019-05-06T02:16:34.299Z,809.58
2019-05-06T02:17:34.388Z,809.54
2019-05-06T02:18:33.935Z,809.53
2019-05-06T02:19:34.558Z,809.57
2019-05-06T02:20:34.003Z,809.55
2019-05-06T02:21:33.674Z,809.58
2019-05-06T02:22:34.477Z,809.54
2019-05-06T02:23:33.838Z,809.54
2019-05-06T02:24:33.784Z,809.58
2019-05-06T02:25:34.171Z,809.57
2019-05-06T02:26:34.292Z,809.56
2019-05-06T02:27:34.107Z,809.60
2019-05-06T02:28:34.369Z,809.60
2019-05-06T02:29:34.168Z,809.59
2019-05-06T02:30:36.151Z,809.58
2019-05-06T02:31:35.171Z,809.59
2019-05-06T02:32:35.708Z,809.61
2019-05-06T02:33:35.383Z,809.60
2019-05-06T02:34:36.029Z,809.63
2019-05-06T02:35:34.823Z,809.63
2019-05-06T02:36:34.398Z,809.63
2019-05-06T02:37:34.973Z,809.63
2019-05-06T02:38:39.097Z,809.66
2019-05-06T02:39:34.129Z,809.66
2019-05-06T02:40:33.326Z,809.69
2019-05-06T02:41:33.783Z,809.67
2019-05-06T02:42:33.620Z,809.64
2019-05-06T02:43:34.382Z,809.64
2019-05-06T02:44:33.594Z,809.63
2019-05-06T02:45:33.454Z,809.57
2019-05-06T02:46:33.801Z,809.64
2019-05-06T02:47:34.370Z,809.63
2019-05-06T02:48:33.535Z,809.64
2019-05-06T02:49:32.974Z,809.67
2019-05-06T02:50:33.917Z,809.66
2019-05-06T02:51:33.381Z,809.69
2019-05-06T02:52:33.044Z,809.64
2019-05-06T02:53:33.622Z,809.62
2019-05-06T02:54:34.463Z,809.65
2019-05-06T02:55:36.077Z,809.68
2019-05-06T02:56:33.357Z,809.67
2019-05-06T02:57:33.520Z,809.68
2019-05-06T02:58:33.160Z,809.70
2019-05-06T02:59:33.222Z,809.73
2019-05-06T03:00:33.083Z,809.66
2019-05-06T03:01:33.998Z,809.71
2019-05-06T03:02:39.927Z,809.68
2019-05-06T03:03:33.672Z,809.69
2019-05-06T03:04:33.344Z,809.73
2019-05-06T03:05:33.294Z,809.70
2019-05-06T03:06:33.734Z,809.72
2019-05-06T03:07:33.292Z,809.77
2019-05-06T03:08:32.999Z,809.75
2019-05-06T03:09:33.909Z,809.77
2019-05-06T03:10:33.067Z,809.75
2019-05-06T03:11:33.253Z,809.77
2019-05-06T03:12:33.562Z,809.75
2019-05-06T03:13:33.946Z,809.71
2019-05-06T03:14:34.614Z,809.78
2019-05-06T03:15:34.192Z,809.78
2019-05-06T03:16:33.489Z,809.78
2019-05-06T03:17:32.974Z,809.80
2019-05-06T03:18:32.952Z,809.79
2019-05-06T03:19:34.140Z,809.81
2019-05-06T03:20:35.858Z,809.79
2019-05-06T03:21:36.673Z,809.78
2019-05-06T03:22:34.561Z,809.79
2019-05-06T03:23:34.972Z,809.79
2019-05-06T03:24:33.214Z,809.80
2019-05-06T03:25:33.247Z,809.78
2019-05-06T03:26:33.207Z,809.82
2019-05-06T03:27:33.065Z,809.79
2019-05-06T03:28:33.436Z,809.80
2019-05-06T03:29:33.542Z,809.83
2019-05-06T03:30:36.156Z,809.80
2019-05-06T03:31:36.341Z,809.81
2019-05-06T03:32:38.212Z,809.82
2019-05-06T03:33:50.652Z,809.81
2019-05-06T03:34:52.757Z,809.84
2019-05-06T03:35:48.408Z,809.86
2019-05-06T03:36:39.811Z,809.81
2019-05-06T03:37:33.447Z,809.80
2019-05-06T03:38:33.688Z,809.81
2019-05-06T03:39:33.750Z,809.83
2019-05-06T03:40:36.143Z,809.79
2019-05-06T03:41:33.849Z,809.85
2019-05-06T03:42:33.459Z,809.84
2019-05-06T03:43:33.760Z,809.86
2019-05-06T03:44:33.136Z,809.89
2019-05-06T03:45:33.578Z,809.87
2019-05-06T03:46:33.602Z,809.81
2019-05-06T03:47:34.543Z,809.83
2019-05-06T03:48:33.423Z,809.84
2019-05-06T03:49:33.797Z,809.85
2019-05-06T03:50:33.597Z,809.86
2019-05-06T03:51:34.267Z,809.84
2019-05-06T03:52:34.141Z,809.85
2019-05-06T03:53:33.558Z,809.87
2019-05-06T03:54:34.344Z,809.85
2019-05-06T03:55:34.204Z,809.83
2019-05-06T03:56:33.905Z,809.84
2019-05-06T03:57:36.184Z,809.84
2019-05-06T03:58:34.589Z,809.83
2019-05-06T03:59:33.526Z,809.84
2019-05-06T04:00:33.451Z,809.84
2019-05-06T04:01:33.563Z,809.83
2019-05-06T04:02:33.674Z,809.84
2019-05-06T04:03:44.067Z,809.86
2019-05-06T04:04:33.339Z,809.86
2019-05-06T04:05:33.523Z,809.89
2019-05-06T04:06:33.470Z,809.87
2019-05-06T04:07:33.982Z,809.89
2019-05-06T04:08:34.167Z,809.94
2019-05-06T04:09:33.560Z,809.94
2019-05-06T04:10:36.495Z,809.89
2019-05-06T04:11:35.771Z,809.92
2019-05-06T04:12:33.274Z,809.92
2019-05-06T04:13:33.351Z,809.95
2019-05-06T04:14:33.657Z,809.90
2019-05-06T04:15:34.160Z,809.95
2019-05-06T04:16:33.827Z,809.98
2019-05-06T04:17:33.065Z,809.94
2019-05-06T04:18:33.486Z,810.01
2019-05-06T04:19:33.480Z,810.02
2019-05-06T04:20:34.329Z,809.97
2019-05-06T04:21:33.132Z,809.92
2019-05-06T04:22:33.360Z,809.98
2019-05-06T04:23:33.352Z,809.96
2019-05-06T04:24:33.723Z,809.94
2019-05-06T04:25:33.972Z,809.97
2019-05-06T04:26:33.115Z,809.98
2019-05-06T04:27:33.537Z,810.01
2019-05-06T04:28:34.163Z,810.01
2019-05-06T04:29:35.532Z,810.06
2019-05-06T04:30:33.487Z,810.09
2019-05-06T04:31:33.637Z,810.08
2019-05-06T04:32:34.048Z,810.09
2019-05-06T04:33:33.327Z,810.06
2019-05-06T04:34:33.364Z,810.13
2019-05-06T04:35:33.790Z,810.12
2019-05-06T04:36:33.663Z,810.13
2019-05-06T04:37:33.857Z,810.16
2019-05-06T04:38:33.731Z,810.18
2019-05-06T04:39:33.252Z,810.20
2019-05-06T04:40:33.223Z,810.19
2019-05-06T04:41:34.057Z,810.21
2019-05-06T04:42:34.394Z,810.22
2019-05-06T04:43:33.771Z,810.25
2019-05-06T04:44:33.234Z,810.21
2019-05-06T04:45:33.830Z,810.23
2019-05-06T04:46:34.903Z,810.23
2019-05-06T04:47:32.947Z,810.22
2019-05-06T04:48:33.286Z,810.23
2019-05-06T04:49:33.318Z,810.18
2019-05-06T04:50:33.306Z,810.22
2019-05-06T04:51:36.748Z,810.22
2019-05-06T04:52:34.186Z,810.21
2019-05-06T04:53:33.901Z,810.20
2019-05-06T04:54:33.644Z,810.25
2019-05-06T04:55:33.732Z,810.22
2019-05-06T04:56:33.364Z,810.22
2019-05-06T04:57:33.818Z,810.22
2019-05-06T04:58:33.705Z,810.22
2019-05-06T04:59:32.970Z,810.24
2019-05-06T05:00:33.252Z,810.24
2019-05-06T05:01:34.073Z,810.25
2019-05-06T05:02:33.706Z,810.31
2019-05-06T05:03:33.573Z,810.29
2019-05-06T05:04:36.600Z,810.32
2019-05-06T05:05:33.300Z,810.34
2019-05-06T05:06:33.087Z,810.31
2019-05-06T05:07:33.539Z,810.40
2019-05-06T05:08:33.209Z,810.35
2019-05-06T05:09:32.995Z,810.39
2019-05-06T05:10:32.998Z,810.38
2019-05-06T05:11:33.354Z,810.40
2019-05-06T05:12:33.721Z,810.41
2019-05-06T05:13:33.087Z,810.45
2019-05-06T05:14:33.002Z,810.43
2019-05-06T05:15:33.006Z,810.47
2019-05-06T05:16:33.281Z,810.44
2019-05-06T05:17:33.231Z,810.45
2019-05-06T05:18:33.027Z,810.40
2019-05-06T05:19:33.013Z,810.44
2019-05-06T05:20:37.685Z,810.47
2019-05-06T05:21:33.025Z,810.50
2019-05-06T05:22:33.019Z,810.49
2019-05-06T05:23:33.027Z,810.49
2019-05-06T05:24:33.029Z,810.48
2019-05-06T05:25:33.028Z,810.48
2019-05-06T05:26:33.032Z,810.50
2019-05-06T05:27:33.064Z,810.50
2019-05-06T05:28:33.035Z,810.50
2019-05-06T05:29:33.040Z,810.51
2019-05-06T05:30:33.045Z,810.58
2019-05-06T05:31:33.377Z,810.55
2019-05-06T05:32:33.043Z,810.56
2019-05-06T05:33:33.050Z,810.60
2019-05-06T05:34:40.253Z,810.60
2019-05-06T05:35:33.057Z,810.63
2019-05-06T05:36:33.053Z,810.61
2019-05-06T05:37:33.060Z,810.61
2019-05-06T05:38:33.066Z,810.60
2019-05-06T05:39:33.367Z,810.59
2019-05-06T05:40:33.066Z,810.63
2019-05-06T05:41:33.391Z,810.63
2019-05-06T05:42:33.070Z,810.64
2019-05-06T05:43:33.078Z,810.66
2019-05-06T05:44:33.075Z,810.70
2019-05-06T05:45:33.086Z,810.73
2019-05-06T05:46:33.169Z,810.68
2019-05-06T05:47:33.245Z,810.74
2019-05-06T05:48:33.086Z,810.72
2019-05-06T05:49:33.094Z,810.70
2019-05-06T05:50:33.101Z,810.70
2019-05-06T05:51:33.096Z,810.66
2019-05-06T05:52:33.145Z,810.68
2019-05-06T05:53:33.101Z,810.68
2019-05-06T05:54:33.333Z,810.71
2019-05-06T05:55:33.145Z,810.75
2019-05-06T05:56:33.169Z,810.78
2019-05-06T05:57:33.111Z,810.75
2019-05-06T05:58:33.151Z,810.73
2019-05-06T05:59:33.174Z,810.76
2019-05-06T06:00:33.120Z,810.73
2019-05-06T06:01:33.123Z,810.75
2019-05-06T06:02:33.377Z,810.70
2019-05-06T06:03:33.129Z,810.75
2019-05-06T06:04:33.132Z,810.78
2019-05-06T06:05:33.225Z,810.75
2019-05-06T06:06:33.399Z,810.80
2019-05-06T06:07:33.144Z,810.80
2019-05-06T06:08:33.143Z,810.79
2019-05-06T06:09:33.146Z,810.85
2019-05-06T06:10:33.325Z,810.85
2019-05-06T06:11:33.153Z,810.83
2019-05-06T06:12:33.157Z,810.81
2019-05-06T06:13:33.163Z,810.81
2019-05-06T06:14:33.359Z,810.80
2019-05-06T06:15:33.167Z,810.83
2019-05-06T06:16:33.167Z,810.81
2019-05-06T06:17:33.171Z,810.87
2019-05-06T06:18:33.425Z,810.85
2019-05-06T06:19:33.179Z,810.84
2019-05-06T06:20:33.179Z,810.82
2019-05-06T06:21:33.193Z,810.89
2019-05-06T06:22:33.198Z,810.84
2019-05-06T06:23:33.189Z,810.86
2019-05-06T06:24:33.195Z,810.87
2019-05-06T06:25:33.561Z,810.89
2019-05-06T06:26:33.200Z,810.89
2019-05-06T06:27:33.270Z,810.89
2019-05-06T06:28:33.407Z,810.89
2019-05-06T06:29:33.212Z,810.91
2019-05-06T06:30:33.227Z,810.92
2019-05-06T06:31:33.326Z,810.96
2019-05-06T06:32:33.223Z,810.94
2019-05-06T06:33:33.219Z,810.95
2019-05-06T06:34:33.222Z,810.96
2019-05-06T06:35:33.230Z,810.94
2019-05-06T06:36:33.231Z,810.92
2019-05-06T06:37:33.350Z,810.94
2019-05-06T06:38:33.233Z,810.99
2019-05-06T06:39:33.241Z,810.98
2019-05-06T06:40:33.243Z,810.99
2019-05-06T06:41:33.244Z,810.95
2019-05-06T06:42:33.621Z,810.96
2019-05-06T06:43:33.253Z,810.97
2019-05-06T06:44:33.264Z,810.94
2019-05-06T06:45:33.254Z,811.00
2019-05-06T06:46:33.257Z,810.95
2019-05-06T06:47:33.265Z,810.95
2019-05-06T06:48:33.268Z,810.95
2019-05-06T06:49:33.274Z,810.95
2019-05-06T06:50:33.278Z,810.97
2019-05-06T06:51:33.276Z,810.97
2019-05-06T06:52:33.278Z,810.95
2019-05-06T06:53:33.283Z,810.97
2019-05-06T06:54:33.284Z,810.99
2019-05-06T06:55:33.284Z,811.00
2019-05-06T06:56:33.289Z,811.01
2019-05-06T06:57:34.428Z,810.99
2019-05-06T06:58:33.309Z,811.02
2019-05-06T06:59:33.298Z,811.04
2019-05-06T07:00:33.692Z,811.03
2019-05-06T07:01:33.308Z,811.02
2019-05-06T07:02:33.311Z,811.07
2019-05-06T07:03:33.316Z,811.01
2019-05-06T07:04:33.318Z,811.02
2019-05-06T07:05:33.335Z,811.06
2019-05-06T07:06:33.323Z,811.02
2019-05-06T07:07:41.463Z,811.02
2019-05-06T07:08:37.352Z,811.02
2019-05-06T07:09:33.327Z,811.06
2019-05-06T07:10:33.328Z,811.05
2019-05-06T07:11:33.336Z,811.02
2019-05-06T07:12:33.334Z,811.05
2019-05-06T07:13:33.351Z,811.05
2019-05-06T07:14:36.145Z,811.08
2019-05-06T07:15:33.813Z,811.07
2019-05-06T07:16:33.349Z,811.07
2019-05-06T07:17:33.350Z,811.08
2019-05-06T07:18:33.423Z,811.03
2019-05-06T07:19:33.358Z,811.04
2019-05-06T07:20:33.360Z,811.04
2019-05-06T07:21:34.255Z,811.04
2019-05-06T07:22:33.366Z,811.08
2019-05-06T07:23:33.368Z,811.08
2019-05-06T07:24:33.373Z,811.08
2019-05-06T07:25:33.690Z,811.04
2019-05-06T07:26:33.376Z,811.07
2019-05-06T07:27:33.378Z,811.08
2019-05-06T07:28:33.387Z,811.13
2019-05-06T07:29:33.391Z,811.09
2019-05-06T07:30:33.388Z,811.09
2019-05-06T07:31:33.391Z,811.11
2019-05-06T07:32:33.407Z,811.12
2019-05-06T07:33:33.779Z,811.13
2019-05-06T07:34:33.401Z,811.13
2019-05-06T07:35:40.443Z,811.14
2019-05-06T07:36:33.413Z,811.12
2019-05-06T07:37:33.416Z,811.15
2019-05-06T07:38:33.415Z,811.16
2019-05-06T07:39:33.529Z,811.14
2019-05-06T07:40:33.424Z,811.15
2019-05-06T07:41:36.208Z,811.17
2019-05-06T07:42:33.431Z,811.15
2019-05-06T07:43:33.985Z,811.18
2019-05-06T07:44:33.507Z,811.17
2019-05-06T07:45:33.440Z,811.16
2019-05-06T07:46:33.439Z,811.12
2019-05-06T07:47:33.455Z,811.17
2019-05-06T07:48:33.447Z,811.14
2019-05-06T07:49:33.450Z,811.14
2019-05-06T07:50:33.459Z,811.16
2019-05-06T07:51:33.461Z,811.17
2019-05-06T07:52:33.465Z,811.21
2019-05-06T07:53:33.464Z,811.21
2019-05-06T07:54:33.467Z,811.25
2019-05-06T07:55:33.471Z,811.28
2019-05-06T07:56:33.476Z,811.28
2019-05-06T07:57:33.481Z,811.29
2019-05-06T07:58:33.484Z,811.30
2019-05-06T07:59:33.574Z,811.28
2019-05-06T08:00:33.488Z,811.30
2019-05-06T08:01:33.495Z,811.30
2019-05-06T08:02:33.495Z,811.31
2019-05-06T08:03:33.499Z,811.34
2019-05-06T08:04:33.508Z,811.37
2019-05-06T08:05:33.511Z,811.38
2019-05-06T08:06:33.514Z,811.40
2019-05-06T08:07:33.516Z,811.35
2019-05-06T08:08:33.927Z,811.36
2019-05-06T08:09:33.523Z,811.40
2019-05-06T08:10:33.548Z,811.37
2019-05-06T08:11:33.531Z,811.37
2019-05-06T08:12:33.535Z,811.35
2019-05-06T08:13:33.541Z,811.41
2019-05-06T08:14:33.542Z,811.36
2019-05-06T08:15:33.546Z,811.35
2019-05-06T08:16:33.549Z,811.38
2019-05-06T08:17:33.557Z,811.38
2019-05-06T08:18:33.561Z,811.38
2019-05-06T08:19:33.856Z,811.37
2019-05-06T08:20:33.565Z,811.35
2019-05-06T08:21:33.570Z,811.34
2019-05-06T08:22:33.580Z,811.42
2019-05-06T08:23:33.580Z,811.38
2019-05-06T08:24:33.582Z,811.38
2019-05-06T08:25:33.590Z,811.39
2019-05-06T08:26:33.592Z,811.36
2019-05-06T08:27:33.596Z,811.39
2019-05-06T08:28:41.031Z,811.37
2019-05-06T08:29:33.606Z,811.41
2019-05-06T08:30:33.643Z,811.40
2019-05-06T08:31:33.612Z,811.47
2019-05-06T08:32:33.622Z,811.46
2019-05-06T08:33:33.637Z,811.48
2019-05-06T08:34:34.284Z,811.47
2019-05-06T08:35:33.632Z,811.44
2019-05-06T08:36:33.636Z,811.47
2019-05-06T08:37:33.661Z,811.43
2019-05-06T08:38:33.642Z,811.46
2019-05-06T08:39:33.646Z,811.50
2019-05-06T08:40:33.653Z,811.47
2019-05-06T08:41:33.654Z,811.47
2019-05-06T08:42:33.661Z,811.45
2019-05-06T08:43:33.667Z,811.44
2019-05-06T08:44:33.667Z,811.47
2019-05-06T08:45:33.672Z,811.49
2019-05-06T08:46:33.686Z,811.49
2019-05-06T08:47:33.680Z,811.43
2019-05-06T08:48:33.684Z,811.47
2019-05-06T08:49:33.693Z,811.45
2019-05-06T08:50:33.699Z,811.46
2019-05-06T08:51:33.701Z,811.47
2019-05-06T08:52:33.701Z,811.41
2019-05-06T08:53:33.711Z,811.46
2019-05-06T08:54:33.712Z,811.44
2019-05-06T08:55:33.720Z,811.40
2019-05-06T08:56:33.723Z,811.49
2019-05-06T08:57:33.726Z,811.46
2019-05-06T08:58:33.738Z,811.49
2019-05-06T08:59:33.741Z,811.51
2019-05-06T09:00:33.744Z,811.50
2019-05-06T09:01:33.746Z,811.48
2019-05-06T09:02:33.752Z,811.52
2019-05-06T09:03:33.759Z,811.50
2019-05-06T09:04:33.762Z,811.42
2019-05-06T09:05:33.766Z,811.46
2019-05-06T09:06:34.477Z,811.49
2019-05-06T09:07:33.780Z,811.48
2019-05-06T09:08:33.781Z,811.45
2019-05-06T09:09:33.787Z,811.45
2019-05-06T09:10:33.794Z,811.44
2019-05-06T09:11:33.800Z,811.49
2019-05-06T09:12:33.804Z,811.50
2019-05-06T09:13:33.809Z,811.48
2019-05-06T09:14:33.817Z,811.54
2019-05-06T09:15:33.824Z,811.54
2019-05-06T09:16:33.826Z,811.57
2019-05-06T09:17:33.827Z,811.52
2019-05-06T09:18:33.832Z,811.50
2019-05-06T09:19:33.837Z,811.55
2019-05-06T09:20:33.846Z,811.55
2019-05-06T09:21:33.849Z,811.58
2019-05-06T09:22:33.852Z,811.52
2019-05-06T09:23:33.858Z,811.61
2019-05-06T09:24:33.866Z,811.59
2019-05-06T09:25:33.874Z,811.53
2019-05-06T09:26:33.874Z,811.65
2019-05-06T09:27:33.883Z,811.59
2019-05-06T09:28:34.083Z,811.55
2019-05-06T09:29:33.893Z,811.61
2019-05-06T09:30:33.899Z,811.59
2019-05-06T09:31:33.908Z,811.57
2019-05-06T09:32:36.084Z,811.53
2019-05-06T09:33:33.913Z,811.55
2019-05-06T09:34:33.920Z,811.60
2019-05-06T09:35:33.929Z,811.62
2019-05-06T09:36:43.845Z,811.64
2019-05-06T09:37:33.940Z,811.59
2019-05-06T09:38:33.946Z,811.55
2019-05-06T09:39:33.952Z,811.61
2019-05-06T09:40:33.966Z,811.65
2019-05-06T09:41:33.974Z,811.63
2019-05-06T09:42:33.971Z,811.65
2019-05-06T09:43:33.973Z,811.61
2019-05-06T09:44:33.978Z,811.64
2019-05-06T09:45:33.987Z,811.58
2019-05-06T09:46:33.996Z,811.52
2019-05-06T09:47:34.002Z,811.63
2019-05-06T09:48:34.010Z,811.62
2019-05-06T09:49:34.008Z,811.63
2019-05-06T09:50:34.019Z,811.71
2019-05-06T09:51:34.022Z,811.69
2019-05-06T09:52:34.027Z,811.63
2019-05-06T09:53:34.034Z,811.69
2019-05-06T09:54:34.044Z,811.66
2019-05-06T09:55:34.046Z,811.72
2019-05-06T09:56:34.050Z,811.71
2019-05-06T09:57:34.059Z,811.73
2019-05-06T09:58:34.067Z,811.70
2019-05-06T09:59:34.074Z,811.65
2019-05-06T10:00:34.077Z,811.64
2019-05-06T10:01:34.080Z,811.69
2019-05-06T10:02:34.087Z,811.59
2019-05-06T10:03:34.095Z,811.73
2019-05-06T10:04:34.100Z,811.64
2019-05-06T10:05:34.107Z,811.69
2019-05-06T10:06:34.114Z,811.65
2019-05-06T10:07:34.121Z,811.70
2019-05-06T10:08:34.121Z,811.69
2019-05-06T10:09:34.135Z,811.67
2019-05-06T10:10:34.138Z,811.71
2019-05-06T10:11:34.142Z,811.71
2019-05-06T10:12:34.147Z,811.68
2019-05-06T10:13:34.157Z,811.64
2019-05-06T10:14:34.163Z,811.69
2019-05-06T10:15:34.175Z,811.70
2019-05-06T10:16:34.180Z,811.72
2019-05-06T10:17:34.184Z,811.72
2019-05-06T10:18:34.190Z,811.75
2019-05-06T10:19:34.203Z,811.70
2019-05-06T10:20:34.199Z,811.68
2019-05-06T10:21:34.210Z,811.79
2019-05-06T10:22:34.219Z,811.82
2019-05-06T10:23:34.225Z,811.79
2019-05-06T10:24:34.230Z,811.80
2019-05-06T10:25:34.237Z,811.80
2019-05-06T10:26:34.241Z,811.79
2019-05-06T10:27:34.252Z,811.88
2019-05-06T10:28:34.284Z,811.81
2019-05-06T10:29:34.265Z,811.79
2019-05-06T10:30:34.269Z,811.76
2019-05-06T10:31:34.277Z,811.74
2019-05-06T10:32:34.285Z,811.76
2019-05-06T10:33:34.296Z,811.76
2019-05-06T10:34:34.300Z,811.76
2019-05-06T10:35:34.312Z,811.75
2019-05-06T10:36:34.341Z,811.74
2019-05-06T10:37:34.324Z,811.78
2019-05-06T10:38:34.328Z,811.83
2019-05-06T10:39:34.335Z,811.78
2019-05-06T10:40:34.346Z,811.78
2019-05-06T10:41:34.355Z,811.81
2019-05-06T10:42:34.356Z,811.76
2019-05-06T10:43:34.368Z,811.74
2019-05-06T10:44:34.374Z,811.71
2019-05-06T10:45:34.385Z,811.70
2019-05-06T10:46:34.391Z,811.71
2019-05-06T10:47:34.394Z,811.66
2019-05-06T10:48:34.407Z,811.76
2019-05-06T10:49:34.415Z,811.72
2019-05-06T10:50:34.420Z,811.70
2019-05-06T10:51:34.425Z,811.75
2019-05-06T10:52:34.432Z,811.71
2019-05-06T10:53:34.442Z,811.74
2019-05-06T10:54:34.452Z,811.77
2019-05-06T10:55:34.460Z,811.87
2019-05-06T10:56:49.084Z,811.81
2019-05-06T10:57:34.476Z,811.81
2019-05-06T10:58:34.483Z,811.77
2019-05-06T10:59:34.500Z,811.86
2019-05-06T11:00:34.497Z,811.78
2019-05-06T11:01:34.503Z,811.85
2019-05-06T11:02:34.509Z,811.90
2019-05-06T11:03:34.523Z,811.83
2019-05-06T11:04:34.530Z,811.78
2019-05-06T11:05:34.539Z,811.83
2019-05-06T11:06:34.547Z,811.85
2019-05-06T11:07:35.424Z,811.82
2019-05-06T11:08:34.561Z,811.80
2019-05-06T11:09:34.564Z,811.93
2019-05-06T11:10:40.802Z,811.86
2019-05-06T11:11:38.539Z,811.88
2019-05-06T11:12:34.587Z,811.90
2019-05-06T11:13:34.602Z,811.90
2019-05-06T11:14:34.610Z,811.90
2019-05-06T11:15:34.613Z,811.99
2019-05-06T11:16:34.652Z,811.89
2019-05-06T11:17:34.634Z,811.97
2019-05-06T11:18:34.640Z,812.01
2019-05-06T11:19:34.644Z,811.98
2019-05-06T11:20:34.650Z,812.07
2019-05-06T11:21:34.661Z,811.91
2019-05-06T11:22:34.671Z,812.03
2019-05-06T11:23:34.689Z,812.08
2019-05-06T11:24:34.690Z,812.06
2019-05-06T11:25:36.183Z,812.08
2019-05-06T11:26:34.721Z,812.09
2019-05-06T11:27:37.187Z,812.14
2019-05-06T11:28:35.431Z,812.05
2019-05-06T11:29:36.736Z,812.18
2019-05-06T11:30:34.733Z,812.15
2019-05-06T11:31:34.740Z,812.17
2019-05-06T11:32:34.751Z,812.12
2019-05-06T11:33:34.754Z,812.14
2019-05-06T11:34:34.759Z,812.02
2019-05-06T11:35:34.771Z,812.15
2019-05-06T11:36:37.461Z,812.18
2019-05-06T11:37:45.938Z,812.09
2019-05-06T11:38:34.792Z,812.10
2019-05-06T11:39:34.801Z,812.14
2019-05-06T11:40:34.808Z,812.15
2019-05-06T11:41:34.820Z,812.16
2019-05-06T11:42:35.982Z,812.16
2019-05-06T11:43:34.832Z,812.18
2019-05-06T11:44:34.842Z,812.27
2019-05-06T11:45:34.847Z,812.27
2019-05-06T11:46:34.854Z,812.26
2019-05-06T11:47:34.866Z,812.22
2019-05-06T11:48:34.872Z,812.19
2019-05-06T11:49:34.883Z,812.23
2019-05-06T11:50:34.886Z,812.23
2019-05-06T11:51:34.896Z,812.19
2019-05-06T11:52:34.904Z,812.17
2019-05-06T11:53:34.917Z,812.08
2019-05-06T11:54:34.924Z,812.03
2019-05-06T11:55:38.847Z,812.04
2019-05-06T11:56:47.940Z,812.06
2019-05-06T11:57:34.959Z,812.06
2019-05-06T11:58:34.961Z,812.04
2019-05-06T11:59:34.967Z,812.03
2019-05-06T12:00:35.919Z,812.00
2019-05-06T12:01:34.989Z,811.89
2019-05-06T12:02:34.998Z,811.98
2019-05-06T12:03:35.006Z,812.11
2019-05-06T12:04:35.065Z,812.03
2019-05-06T12:05:35.024Z,812.05
2019-05-06T12:06:35.033Z,812.09
2019-05-06T12:07:35.037Z,812.17
2019-05-06T12:08:35.049Z,812.13
2019-05-06T12:09:35.079Z,812.10
2019-05-06T12:10:35.070Z,812.06
2019-05-06T12:11:35.076Z,812.11
2019-05-06T12:12:35.087Z,812.14
2019-05-06T12:13:38.109Z,812.15
2019-05-06T12:14:35.104Z,812.12
2019-05-06T12:15:35.113Z,812.13
2019-05-06T12:16:35.125Z,812.15
2019-05-06T12:17:35.135Z,812.19
2019-05-06T12:18:35.141Z,812.14
2019-05-06T12:19:35.149Z,812.13
2019-05-06T12:20:35.164Z,812.14
2019-05-06T12:21:35.165Z,812.16
2019-05-06T12:22:35.175Z,812.17
2019-05-06T12:23:35.781Z,812.12
2019-05-06T12:24:35.197Z,812.15
2019-05-06T12:25:35.211Z,812.20
2019-05-06T12:26:35.214Z,812.19
2019-05-06T12:27:35.221Z,812.17
2019-05-06T12:28:35.229Z,812.19